Plentywood, Montana
Current Conditions -  °F | °C
As of 2:55 AM on Monday 22 Dec 2014 (Local Time) from KD50 Reporting Station
Moderate Fog Moderate Fog  
Wind Chill: 19°   Ceiling: 100
Heat Index: 27°   Visibility: 0.5mi
Dew Point: 27°   Wind: 7mph
Humidity: 100%   Direction: 330°NNW
Pressure: 29.44"   Gusts: NA
Location:  48.77°N, 104.56°W
Report Text: KD50 220955Z AUTO 33006KT 1/2SM FZFG OVC001 M03/M03 A2944 RMK AO2
Loading
Personal Weather Stations






























Interactive Weather Map New forecast layout! Learn more

10-Day Weather Forecast

Advertisements
Track Severe Weather on mobile